createdAt,value
2024-03-03T00:00:14.608Z,100.00
2024-03-03T00:02:16.769Z,100.00
2024-03-03T00:04:18.473Z,100.00
2024-03-03T00:06:20.117Z,100.00
2024-03-03T00:08:24.689Z,100.00
2024-03-03T00:10:26.401Z,100.00
2024-03-03T00:12:28.486Z,100.00
2024-03-03T00:14:30.240Z,100.00
2024-03-03T00:16:34.668Z,100.00
2024-03-03T00:18:39.888Z,100.00
2024-03-03T00:20:42.195Z,100.00
2024-03-03T00:22:43.913Z,100.00
2024-03-03T00:24:45.665Z,100.00
2024-03-03T00:26:47.894Z,100.00
2024-03-03T00:28:49.998Z,100.00
2024-03-03T00:30:51.847Z,100.00
2024-03-03T00:32:53.994Z,100.00
2024-03-03T00:34:56.813Z,100.00
2024-03-03T00:36:58.630Z,100.00
2024-03-03T00:39:00.714Z,100.00
2024-03-03T00:41:04.103Z,100.00
2024-03-03T00:43:05.862Z,100.00
2024-03-03T00:45:07.728Z,100.00
2024-03-03T00:47:09.566Z,100.00
2024-03-03T00:49:11.294Z,100.00
2024-03-03T00:51:13.031Z,100.00
2024-03-03T00:53:15.224Z,100.00
2024-03-03T00:55:16.970Z,100.00
2024-03-03T00:57:19.677Z,100.00
2024-03-03T00:59:21.354Z,100.00
2024-03-03T01:01:23.181Z,100.00
2024-03-03T01:03:24.873Z,100.00
2024-03-03T01:05:26.662Z,100.00
2024-03-03T01:07:28.411Z,100.00
2024-03-03T01:09:30.518Z,100.00
2024-03-03T01:11:32.409Z,100.00
2024-03-03T01:13:34.219Z,100.00
2024-03-03T01:15:35.915Z,100.00
2024-03-03T01:17:37.671Z,100.00
2024-03-03T01:19:40.008Z,100.00
2024-03-03T01:21:42.225Z,100.00
2024-03-03T01:23:44.083Z,100.00
2024-03-03T01:25:46.075Z,100.00
2024-03-03T01:27:47.895Z,100.00
2024-03-03T01:29:49.606Z,100.00
2024-03-03T01:31:52.935Z,100.00
2024-03-03T01:33:54.690Z,100.00
2024-03-03T01:35:56.812Z,100.00
2024-03-03T01:37:58.511Z,100.00
2024-03-03T01:40:00.283Z,100.00
2024-03-03T01:42:02.012Z,100.00
2024-03-03T01:44:04.013Z,100.00
2024-03-03T01:46:05.779Z,100.00
2024-03-03T01:48:08.917Z,100.00
2024-03-03T01:50:11.379Z,100.00
2024-03-03T01:52:13.370Z,100.00
2024-03-03T01:54:16.249Z,100.00
2024-03-03T01:56:24.655Z,100.00
2024-03-03T01:58:29.115Z,100.00
2024-03-03T02:00:34.850Z,100.00
2024-03-03T02:02:40.460Z,100.00
2024-03-03T02:04:42.676Z,100.00
2024-03-03T02:06:44.411Z,100.00
2024-03-03T02:08:47.467Z,100.00
2024-03-03T02:10:50.793Z,100.00
2024-03-03T02:12:52.640Z,100.00
2024-03-03T02:14:54.746Z,100.00
2024-03-03T02:16:56.490Z,100.00
2024-03-03T02:18:58.343Z,100.00
2024-03-03T02:21:00.461Z,100.00
2024-03-03T02:23:02.588Z,100.00
2024-03-03T02:25:06.087Z,100.00
2024-03-03T02:27:08.065Z,100.00
2024-03-03T02:29:10.649Z,100.00
2024-03-03T02:31:12.381Z,100.00
2024-03-03T02:33:14.115Z,100.00
2024-03-03T02:35:16.217Z,100.00
2024-03-03T02:37:17.954Z,100.00
2024-03-03T02:39:19.878Z,100.00
2024-03-03T02:41:21.644Z,100.00
2024-03-03T02:43:23.393Z,100.00
2024-03-03T02:45:25.456Z,100.00
2024-03-03T02:47:27.488Z,100.00
2024-03-03T02:49:29.185Z,100.00
2024-03-03T02:51:31.115Z,100.00
2024-03-03T02:53:32.855Z,100.00
2024-03-03T02:55:34.545Z,100.00
2024-03-03T02:57:36.540Z,100.00
2024-03-03T02:59:39.050Z,100.00
2024-03-03T03:01:41.315Z,100.00
2024-03-03T03:03:43.380Z,100.00
2024-03-03T03:05:45.209Z,100.00
2024-03-03T03:07:46.899Z,100.00
2024-03-03T03:09:48.700Z,100.00
2024-03-03T03:11:50.466Z,100.00
2024-03-03T03:13:54.014Z,100.00
2024-03-03T03:15:56.226Z,100.00
2024-03-03T03:17:57.958Z,100.00
2024-03-03T03:20:00.584Z,100.00
2024-03-03T03:22:02.333Z,100.00
2024-03-03T03:24:04.348Z,100.00
2024-03-03T03:26:06.057Z,100.00
2024-03-03T03:28:07.724Z,100.00
2024-03-03T03:30:10.382Z,100.00
2024-03-03T03:32:12.281Z,100.00
2024-03-03T03:34:14.032Z,100.00
2024-03-03T03:36:15.841Z,100.00
2024-03-03T03:38:17.566Z,100.00
2024-03-03T03:40:19.440Z,100.00
2024-03-03T03:42:21.275Z,100.00
2024-03-03T03:44:23.099Z,100.00
2024-03-03T03:46:24.888Z,100.00
2024-03-03T03:48:26.606Z,100.00
2024-03-03T03:50:29.093Z,100.00
2024-03-03T03:52:30.800Z,100.00
2024-03-03T03:54:32.625Z,100.00
2024-03-03T03:56:35.584Z,100.00
2024-03-03T03:58:37.841Z,100.00
2024-03-03T04:00:39.622Z,100.00
2024-03-03T04:02:41.498Z,100.00
2024-03-03T04:04:43.756Z,100.00
2024-03-03T04:06:45.520Z,100.00
2024-03-03T04:08:47.238Z,100.00
2024-03-03T04:10:48.946Z,100.00
2024-03-03T04:12:50.727Z,100.00
2024-03-03T04:14:52.407Z,100.00
2024-03-03T04:16:54.233Z,100.00
2024-03-03T04:18:55.952Z,100.00
2024-03-03T04:20:57.627Z,100.00
2024-03-03T04:22:59.225Z,100.00
2024-03-03T04:25:01.181Z,100.00
2024-03-03T04:27:04.697Z,100.00
2024-03-03T04:29:06.463Z,100.00
2024-03-03T04:31:08.400Z,100.00
2024-03-03T04:33:10.351Z,100.00
2024-03-03T04:35:12.021Z,100.00
2024-03-03T04:37:13.824Z,100.00
2024-03-03T04:39:16.915Z,100.00
2024-03-03T04:41:20.262Z,100.00
2024-03-03T04:43:22.022Z,100.00
2024-03-03T04:45:23.806Z,100.00
2024-03-03T04:47:25.774Z,100.00
2024-03-03T04:49:27.582Z,100.00
2024-03-03T04:51:29.328Z,100.00
2024-03-03T04:53:31.157Z,100.00
2024-03-03T04:55:33.097Z,100.00
2024-03-03T04:57:34.979Z,100.00
2024-03-03T04:59:36.700Z,100.00
2024-03-03T05:01:42.195Z,100.00
2024-03-03T05:03:44.048Z,100.00
2024-03-03T05:05:45.882Z,100.00
2024-03-03T05:07:47.581Z,100.00
2024-03-03T05:09:49.816Z,100.00
2024-03-03T05:11:51.544Z,100.00
2024-03-03T05:13:54.959Z,100.00
2024-03-03T05:15:56.789Z,100.00
2024-03-03T05:17:58.643Z,100.00
2024-03-03T05:20:00.350Z,100.00
2024-03-03T05:22:02.169Z,100.00
2024-03-03T05:24:05.291Z,100.00
2024-03-03T05:26:07.183Z,100.00
2024-03-03T05:28:09.005Z,100.00
2024-03-03T05:30:11.681Z,100.00
2024-03-03T05:32:13.494Z,100.00
2024-03-03T05:34:16.569Z,100.00
2024-03-03T05:36:18.433Z,100.00
2024-03-03T05:38:20.127Z,100.00
2024-03-03T05:40:22.003Z,100.00
2024-03-03T05:42:23.857Z,100.00
2024-03-03T05:44:25.747Z,100.00
2024-03-03T05:46:27.672Z,100.00
2024-03-03T05:48:29.876Z,99.97
2024-03-03T05:50:31.679Z,99.70
2024-03-03T05:52:33.421Z,99.68
2024-03-03T05:54:35.163Z,98.87
2024-03-03T05:56:38.911Z,98.26
2024-03-03T05:58:41.125Z,98.47
2024-03-03T06:00:42.921Z,98.33
2024-03-03T06:02:44.744Z,98.37
2024-03-03T06:04:46.596Z,98.16
2024-03-03T06:06:48.433Z,98.21
2024-03-03T06:08:51.707Z,97.58
2024-03-03T06:10:53.558Z,97.66
2024-03-03T06:12:55.313Z,96.96
2024-03-03T06:14:57.195Z,96.37
2024-03-03T06:16:59.151Z,95.85
2024-03-03T06:19:00.972Z,95.48
2024-03-03T06:21:02.913Z,95.55
2024-03-03T06:23:05.328Z,95.09
2024-03-03T06:25:09.681Z,94.45
2024-03-03T06:27:13.381Z,94.59
2024-03-03T06:29:15.744Z,94.70
2024-03-03T06:31:17.721Z,94.75
2024-03-03T06:33:19.771Z,95.02
2024-03-03T06:35:21.444Z,94.48
2024-03-03T06:37:23.178Z,93.91
2024-03-03T06:39:24.866Z,93.38
2024-03-03T06:41:26.639Z,92.76
2024-03-03T06:43:28.345Z,92.24
2024-03-03T06:45:30.368Z,92.02
2024-03-03T06:47:33.437Z,90.37
2024-03-03T06:49:35.580Z,89.22
2024-03-03T06:51:37.484Z,87.09
2024-03-03T06:53:40.365Z,86.10
2024-03-03T06:55:42.147Z,86.18
2024-03-03T06:57:44.183Z,85.42
2024-03-03T06:59:46.010Z,85.32
2024-03-03T07:01:47.703Z,85.26
2024-03-03T07:03:49.438Z,84.08
2024-03-03T07:05:51.604Z,82.51
2024-03-03T07:07:53.281Z,82.43
2024-03-03T07:09:54.980Z,82.32
2024-03-03T07:11:58.398Z,82.38
2024-03-03T07:14:00.315Z,82.12
2024-03-03T07:16:02.325Z,82.06
2024-03-03T07:18:06.258Z,81.82
2024-03-03T07:20:08.833Z,81.84
2024-03-03T07:22:10.633Z,81.82
2024-03-03T07:24:13.254Z,81.83
2024-03-03T07:26:14.922Z,81.57
2024-03-03T07:28:16.699Z,81.34
2024-03-03T07:30:21.085Z,81.32
2024-03-03T07:32:24.559Z,81.33
2024-03-03T07:36:39.655Z,81.51
2024-03-03T07:38:43.007Z,81.64
2024-03-03T07:40:48.666Z,81.90
2024-03-03T07:42:50.409Z,82.10
2024-03-03T07:44:52.089Z,82.10
2024-03-03T07:46:53.773Z,81.88
2024-03-03T07:48:55.515Z,81.90
2024-03-03T07:50:57.471Z,82.00
2024-03-03T07:52:59.251Z,82.17
2024-03-03T07:55:00.973Z,82.34
2024-03-03T07:57:02.813Z,82.36
2024-03-03T07:59:06.979Z,82.27
2024-03-03T08:01:08.818Z,82.42
2024-03-03T08:03:10.650Z,82.51
2024-03-03T08:05:12.313Z,81.43
2024-03-03T08:07:14.236Z,81.53
2024-03-03T08:09:16.033Z,82.60
2024-03-03T08:11:17.813Z,82.98
2024-03-03T08:13:19.593Z,82.37
2024-03-03T08:15:22.857Z,82.27
2024-03-03T08:17:25.147Z,82.21
2024-03-03T08:19:29.067Z,81.53
2024-03-03T08:21:32.019Z,80.51
2024-03-03T08:23:33.786Z,79.77
2024-03-03T08:25:35.503Z,79.96
2024-03-03T08:27:37.251Z,80.03
2024-03-03T08:29:38.914Z,80.20
2024-03-03T08:31:43.156Z,80.32
2024-03-03T08:33:44.914Z,80.02
2024-03-03T08:35:46.583Z,80.52
2024-03-03T08:37:48.325Z,80.81
2024-03-03T08:39:50.064Z,80.83
2024-03-03T08:41:51.847Z,80.48
2024-03-03T08:43:53.546Z,80.69
2024-03-03T08:45:55.212Z,80.25
2024-03-03T08:47:56.952Z,80.40
2024-03-03T08:49:59.980Z,80.46
2024-03-03T08:52:07.050Z,80.54
2024-03-03T08:54:09.302Z,80.49
2024-03-03T08:56:10.975Z,80.61
2024-03-03T08:58:13.000Z,80.17
2024-03-03T09:00:15.344Z,78.85
2024-03-03T09:02:17.056Z,77.45
2024-03-03T09:04:18.888Z,77.33
2024-03-03T09:06:20.617Z,77.26
2024-03-03T09:08:22.354Z,76.19
2024-03-03T09:10:24.015Z,76.75
2024-03-03T09:12:25.814Z,76.87
2024-03-03T09:14:27.597Z,76.87
2024-03-03T09:16:29.508Z,76.67
2024-03-03T09:18:31.510Z,76.83
2024-03-03T09:20:33.202Z,76.75
2024-03-03T09:22:36.903Z,76.69
2024-03-03T09:24:43.499Z,76.18
2024-03-03T09:26:46.007Z,75.96
2024-03-03T09:28:47.761Z,75.58
2024-03-03T09:30:49.616Z,75.49
2024-03-03T09:32:53.768Z,75.84
2024-03-03T09:34:55.622Z,76.08
2024-03-03T09:36:57.369Z,76.11
2024-03-03T09:38:59.111Z,75.73
2024-03-03T09:41:01.358Z,75.32
2024-03-03T09:43:04.703Z,75.46
2024-03-03T09:45:13.643Z,75.16
2024-03-03T09:47:17.226Z,75.10
2024-03-03T09:49:20.394Z,74.56
2024-03-03T09:51:25.460Z,74.29
2024-03-03T09:53:28.513Z,74.34
2024-03-03T09:55:31.820Z,74.07
2024-03-03T09:57:34.221Z,74.19
2024-03-03T09:59:35.954Z,74.13
2024-03-03T10:01:40.840Z,74.06
2024-03-03T10:03:44.399Z,73.96
2024-03-03T10:05:47.034Z,73.67
2024-03-03T10:07:54.021Z,73.81
2024-03-03T10:10:06.985Z,73.68
2024-03-03T10:12:11.905Z,73.80
2024-03-03T10:14:14.184Z,72.82
2024-03-03T10:16:18.281Z,72.41
2024-03-03T10:18:22.059Z,72.74
2024-03-03T10:20:24.252Z,73.17
2024-03-03T10:22:26.437Z,73.19
2024-03-03T10:24:30.813Z,72.99
2024-03-03T10:26:37.883Z,72.65
2024-03-03T10:28:39.702Z,72.85
2024-03-03T10:30:41.741Z,72.84
2024-03-03T10:32:45.443Z,72.28
2024-03-03T10:34:58.137Z,71.60
2024-03-03T10:37:05.464Z,71.09
2024-03-03T10:39:11.019Z,71.65
2024-03-03T10:41:12.676Z,71.87
2024-03-03T10:43:14.699Z,72.03
2024-03-03T10:45:16.464Z,72.37
2024-03-03T10:47:20.512Z,72.17
2024-03-03T10:49:26.738Z,71.83
2024-03-03T10:51:28.733Z,71.32
2024-03-03T10:53:32.617Z,71.49
2024-03-03T10:55:38.054Z,71.46
2024-03-03T10:57:40.223Z,71.28
2024-03-03T10:59:43.578Z,71.26
2024-03-03T11:01:46.185Z,71.30
2024-03-03T11:03:49.220Z,70.78
2024-03-03T11:05:52.605Z,71.48
2024-03-03T11:07:55.728Z,72.18
2024-03-03T11:10:00.419Z,72.57
2024-03-03T11:12:07.316Z,73.05
2024-03-03T11:14:13.683Z,73.47
2024-03-03T11:16:15.683Z,73.71
2024-03-03T11:18:21.629Z,73.49
2024-03-03T11:20:25.367Z,73.18
2024-03-03T11:22:27.604Z,73.49
2024-03-03T11:24:36.607Z,74.09
2024-03-03T11:26:44.665Z,74.48
2024-03-03T11:28:54.298Z,74.63
2024-03-03T11:30:56.846Z,74.76
2024-03-03T11:33:00.012Z,74.94
2024-03-03T11:35:03.700Z,74.92
2024-03-03T11:37:05.953Z,74.97
2024-03-03T11:39:15.309Z,75.45
2024-03-03T11:41:21.790Z,75.44
2024-03-03T11:43:27.031Z,75.18
2024-03-03T11:45:49.465Z,75.39
2024-03-03T11:47:51.432Z,75.32
2024-03-03T11:49:53.659Z,75.58
2024-03-03T11:51:55.528Z,76.08
2024-03-03T11:54:01.363Z,76.42
2024-03-03T11:56:03.061Z,77.63
2024-03-03T11:58:06.724Z,79.27
2024-03-03T12:00:15.533Z,80.34
2024-03-03T12:02:19.216Z,81.65
2024-03-03T12:04:20.938Z,82.55
2024-03-03T12:06:27.046Z,83.06
2024-03-03T12:08:33.796Z,83.49
2024-03-03T12:10:36.264Z,84.17
2024-03-03T12:12:41.522Z,85.74
2024-03-03T12:14:43.292Z,87.26
2024-03-03T12:16:45.114Z,89.41
2024-03-03T12:18:47.291Z,92.14
2024-03-03T12:20:49.146Z,92.78
2024-03-03T12:22:52.115Z,93.76
2024-03-03T12:24:57.530Z,94.44
2024-03-03T12:26:59.563Z,94.45
2024-03-03T12:29:01.452Z,94.46
2024-03-03T12:31:03.196Z,94.61
2024-03-03T12:33:07.497Z,95.43
2024-03-03T12:35:09.916Z,95.69
2024-03-03T12:37:11.724Z,96.73
2024-03-03T12:39:13.741Z,97.13
2024-03-03T12:41:15.529Z,97.98
2024-03-03T12:43:17.682Z,98.63
2024-03-03T12:45:20.571Z,99.56
2024-03-03T12:47:22.381Z,99.99
2024-03-03T12:49:24.068Z,100.00
2024-03-03T12:51:25.985Z,100.00
2024-03-03T12:53:39.254Z,100.00
2024-03-03T12:55:42.777Z,100.00
2024-03-03T12:57:45.572Z,100.00
2024-03-03T12:59:47.912Z,100.00
2024-03-03T13:01:49.987Z,100.00
2024-03-03T13:03:54.481Z,100.00
2024-03-03T13:05:56.454Z,100.00
2024-03-03T13:07:58.726Z,100.00
2024-03-03T13:10:00.479Z,100.00
2024-03-03T13:12:05.527Z,100.00
2024-03-03T13:14:07.151Z,100.00
2024-03-03T13:16:10.838Z,100.00
2024-03-03T13:18:17.035Z,100.00
2024-03-03T13:20:28.817Z,100.00
2024-03-03T13:22:30.955Z,100.00
2024-03-03T13:24:33.649Z,100.00
2024-03-03T13:26:35.654Z,100.00
2024-03-03T13:28:38.348Z,100.00
2024-03-03T13:30:42.503Z,100.00
2024-03-03T13:32:44.213Z,100.00
2024-03-03T13:34:46.674Z,100.00
2024-03-03T13:36:48.462Z,100.00
2024-03-03T13:38:50.202Z,100.00
2024-03-03T13:40:52.175Z,100.00
2024-03-03T13:42:54.358Z,100.00
2024-03-03T13:44:56.064Z,100.00
2024-03-03T13:46:58.086Z,100.00
2024-03-03T13:48:59.787Z,100.00
2024-03-03T13:51:02.802Z,100.00
2024-03-03T13:53:05.643Z,100.00
2024-03-03T13:55:08.191Z,100.00
2024-03-03T13:57:10.762Z,100.00
2024-03-03T13:59:13.164Z,100.00
2024-03-03T14:01:17.826Z,100.00
2024-03-03T14:03:19.936Z,100.00
2024-03-03T14:05:33.469Z,100.00
2024-03-03T14:07:35.969Z,100.00
2024-03-03T14:09:37.858Z,100.00
2024-03-03T14:11:39.582Z,100.00
2024-03-03T14:13:41.300Z,100.00
2024-03-03T14:15:43.255Z,100.00
2024-03-03T14:17:45.252Z,100.00
2024-03-03T14:19:47.670Z,100.00
2024-03-03T14:21:51.377Z,100.00
2024-03-03T14:23:54.196Z,100.00
2024-03-03T14:25:57.918Z,100.00
2024-03-03T14:28:05.392Z,100.00
2024-03-03T14:30:14.779Z,100.00
2024-03-03T14:32:16.607Z,100.00
2024-03-03T14:34:19.695Z,100.00
2024-03-03T14:36:24.456Z,100.00
2024-03-03T14:38:26.311Z,100.00
2024-03-03T14:40:28.321Z,100.00
2024-03-03T14:42:30.865Z,100.00
2024-03-03T14:44:33.287Z,100.00
2024-03-03T14:46:35.279Z,100.00
2024-03-03T14:48:37.483Z,100.00
2024-03-03T14:50:39.196Z,100.00
2024-03-03T14:52:40.864Z,100.00
2024-03-03T14:54:42.525Z,100.00
2024-03-03T14:56:44.801Z,100.00
2024-03-03T14:58:46.567Z,100.00
2024-03-03T15:00:48.343Z,100.00
2024-03-03T15:02:50.913Z,100.00
2024-03-03T15:04:53.934Z,100.00
2024-03-03T15:06:55.694Z,100.00
2024-03-03T15:08:57.490Z,100.00
2024-03-03T15:11:00.247Z,100.00
2024-03-03T15:13:06.458Z,100.00
2024-03-03T15:15:09.097Z,100.00
2024-03-03T15:17:21.331Z,100.00
2024-03-03T15:19:23.490Z,100.00
2024-03-03T15:21:25.685Z,100.00
2024-03-03T15:23:27.328Z,100.00
2024-03-03T15:25:29.468Z,100.00
2024-03-03T15:27:31.626Z,100.00
2024-03-03T15:29:33.468Z,100.00
2024-03-03T15:31:35.231Z,100.00
2024-03-03T15:33:37.674Z,100.00
2024-03-03T15:35:39.810Z,100.00
2024-03-03T15:37:41.588Z,100.00
2024-03-03T15:39:43.718Z,100.00
2024-03-03T15:41:45.315Z,100.00
2024-03-03T15:43:47.270Z,100.00
2024-03-03T15:45:49.778Z,100.00
2024-03-03T15:47:51.602Z,100.00
2024-03-03T15:49:53.325Z,100.00
2024-03-03T15:51:55.028Z,100.00
2024-03-03T15:53:56.807Z,100.00
2024-03-03T15:56:01.391Z,100.00
2024-03-03T15:58:04.255Z,100.00
2024-03-03T16:00:07.869Z,100.00
2024-03-03T16:02:09.898Z,100.00
2024-03-03T16:04:11.561Z,100.00
2024-03-03T16:06:13.384Z,100.00
2024-03-03T16:08:16.969Z,100.00
2024-03-03T16:10:18.699Z,100.00
2024-03-03T16:12:20.432Z,100.00
2024-03-03T16:14:22.990Z,100.00
2024-03-03T16:16:30.538Z,100.00
2024-03-03T16:18:32.773Z,100.00
2024-03-03T16:20:34.886Z,100.00
2024-03-03T16:22:37.782Z,100.00
2024-03-03T16:24:40.456Z,100.00
2024-03-03T16:26:42.342Z,100.00
2024-03-03T16:28:44.084Z,100.00
2024-03-03T16:30:45.814Z,100.00
2024-03-03T16:32:47.818Z,100.00
2024-03-03T16:34:49.581Z,100.00
2024-03-03T16:36:51.355Z,100.00
2024-03-03T16:38:54.426Z,100.00
2024-03-03T16:40:56.991Z,100.00
2024-03-03T16:43:05.844Z,100.00
2024-03-03T16:45:08.757Z,100.00
2024-03-03T16:47:11.058Z,100.00
2024-03-03T16:49:12.933Z,100.00
2024-03-03T16:51:15.009Z,100.00
2024-03-03T16:53:16.697Z,100.00
2024-03-03T16:55:20.722Z,100.00
2024-03-03T16:57:22.540Z,100.00
2024-03-03T16:59:24.253Z,100.00
2024-03-03T17:01:26.053Z,100.00
2024-03-03T17:03:30.830Z,100.00
2024-03-03T17:05:32.916Z,100.00
2024-03-03T17:07:35.771Z,100.00
2024-03-03T17:09:37.582Z,100.00
2024-03-03T17:11:40.985Z,100.00
2024-03-03T17:13:42.651Z,100.00
2024-03-03T17:15:44.298Z,100.00
2024-03-03T17:17:46.260Z,100.00
2024-03-03T17:19:48.743Z,100.00
2024-03-03T17:21:50.923Z,100.00
2024-03-03T17:23:52.724Z,100.00
2024-03-03T17:25:54.444Z,100.00
2024-03-03T17:27:56.752Z,100.00
2024-03-03T17:29:58.417Z,100.00
2024-03-03T17:32:00.098Z,100.00
2024-03-03T17:34:01.834Z,100.00
2024-03-03T17:36:03.932Z,100.00
2024-03-03T17:38:08.196Z,100.00
2024-03-03T17:40:10.602Z,100.00
2024-03-03T17:42:12.453Z,100.00
2024-03-03T17:44:14.654Z,100.00
2024-03-03T17:46:16.405Z,100.00
2024-03-03T17:48:19.606Z,100.00
2024-03-03T17:50:21.336Z,100.00
2024-03-03T17:52:23.138Z,100.00
2024-03-03T17:54:25.170Z,100.00
2024-03-03T17:56:26.853Z,100.00
2024-03-03T17:58:28.701Z,100.00
2024-03-03T18:00:30.552Z,100.00
2024-03-03T18:02:32.263Z,100.00
2024-03-03T18:04:34.549Z,100.00
2024-03-03T18:06:36.826Z,100.00
2024-03-03T18:08:38.628Z,100.00
2024-03-03T18:10:40.417Z,100.00
2024-03-03T18:12:42.228Z,100.00
2024-03-03T18:14:43.935Z,100.00
2024-03-03T18:16:45.597Z,100.00
2024-03-03T18:18:47.334Z,100.00
2024-03-03T18:20:49.011Z,100.00
2024-03-03T18:22:50.801Z,100.00
2024-03-03T18:24:52.498Z,100.00
2024-03-03T18:26:54.188Z,100.00
2024-03-03T18:28:56.219Z,100.00
2024-03-03T18:30:58.975Z,100.00
2024-03-03T18:33:00.846Z,100.00
2024-03-03T18:35:06.971Z,100.00
2024-03-03T18:37:10.216Z,100.00
2024-03-03T18:39:12.092Z,100.00
2024-03-03T18:41:13.843Z,100.00
2024-03-03T18:43:15.495Z,100.00
2024-03-03T18:45:18.465Z,100.00
2024-03-03T18:47:20.268Z,100.00
2024-03-03T18:49:22.213Z,100.00
2024-03-03T18:51:23.993Z,100.00
2024-03-03T18:53:25.913Z,100.00
2024-03-03T18:55:27.807Z,100.00
2024-03-03T18:57:29.631Z,100.00
2024-03-03T18:59:31.386Z,100.00
2024-03-03T19:01:34.102Z,100.00
2024-03-03T19:03:36.090Z,100.00
2024-03-03T19:05:37.856Z,100.00
2024-03-03T19:07:40.749Z,100.00
2024-03-03T19:09:42.687Z,100.00
2024-03-03T19:11:44.464Z,100.00
2024-03-03T19:13:46.366Z,100.00
2024-03-03T19:15:48.078Z,100.00
2024-03-03T19:17:49.797Z,100.00
2024-03-03T19:19:51.895Z,100.00
2024-03-03T19:21:53.747Z,100.00
2024-03-03T19:23:55.653Z,100.00
2024-03-03T19:25:57.519Z,100.00
2024-03-03T19:27:59.502Z,100.00
2024-03-03T19:30:01.359Z,100.00
2024-03-03T19:32:04.060Z,100.00
2024-03-03T19:34:06.085Z,100.00
2024-03-03T19:36:08.050Z,100.00
2024-03-03T19:38:09.773Z,100.00
2024-03-03T19:40:13.337Z,100.00
2024-03-03T19:42:19.685Z,100.00
2024-03-03T19:44:21.504Z,100.00
2024-03-03T19:46:23.283Z,100.00
2024-03-03T19:48:24.986Z,100.00
2024-03-03T19:52:34.388Z,100.00
2024-03-03T19:54:38.733Z,100.00
2024-03-03T19:56:43.341Z,100.00
2024-03-03T19:58:45.203Z,100.00
2024-03-03T20:00:46.954Z,100.00
2024-03-03T20:02:49.408Z,100.00
2024-03-03T20:04:51.093Z,100.00
2024-03-03T20:06:53.100Z,100.00
2024-03-03T20:08:57.538Z,100.00
2024-03-03T20:11:00.677Z,100.00
2024-03-03T20:13:05.578Z,100.00
2024-03-03T20:15:14.430Z,100.00
2024-03-03T20:17:17.363Z,100.00
2024-03-03T20:19:19.013Z,100.00
2024-03-03T20:21:20.671Z,100.00
2024-03-03T20:23:23.402Z,100.00
2024-03-03T20:25:25.487Z,100.00
2024-03-03T20:27:27.302Z,100.00
2024-03-03T20:29:29.031Z,100.00
2024-03-03T20:31:30.828Z,100.00
2024-03-03T20:33:32.585Z,100.00
2024-03-03T20:35:34.422Z,100.00
2024-03-03T20:37:36.383Z,100.00
2024-03-03T20:39:38.313Z,100.00
2024-03-03T20:41:42.505Z,100.00
2024-03-03T20:43:44.357Z,100.00
2024-03-03T20:45:47.100Z,100.00
2024-03-03T20:47:49.099Z,100.00
2024-03-03T20:49:50.891Z,100.00
2024-03-03T20:51:52.610Z,100.00
2024-03-03T20:53:58.621Z,100.00
2024-03-03T20:56:00.754Z,100.00
2024-03-03T20:58:02.479Z,100.00
2024-03-03T21:00:08.696Z,100.00
2024-03-03T21:02:11.163Z,100.00
2024-03-03T21:04:12.948Z,100.00
2024-03-03T21:06:14.793Z,100.00
2024-03-03T21:08:16.540Z,100.00
2024-03-03T21:10:22.762Z,100.00
2024-03-03T21:12:24.960Z,100.00
2024-03-03T21:14:28.425Z,100.00
2024-03-03T21:16:30.185Z,100.00
2024-03-03T21:18:31.936Z,100.00
2024-03-03T21:20:33.596Z,100.00
2024-03-03T21:22:35.781Z,100.00
2024-03-03T21:24:41.493Z,100.00
2024-03-03T21:26:47.465Z,100.00
2024-03-03T21:28:49.361Z,100.00
2024-03-03T21:30:51.544Z,100.00
2024-03-03T21:32:53.399Z,100.00
2024-03-03T21:34:55.098Z,100.00
2024-03-03T21:36:57.720Z,100.00
2024-03-03T21:38:59.388Z,100.00
2024-03-03T21:41:03.654Z,100.00
2024-03-03T21:43:12.514Z,100.00
2024-03-03T21:45:14.461Z,100.00
2024-03-03T21:47:18.827Z,100.00
2024-03-03T21:49:20.718Z,100.00
2024-03-03T21:51:22.481Z,100.00
2024-03-03T21:53:24.129Z,100.00
2024-03-03T21:55:26.020Z,100.00
2024-03-03T21:57:27.752Z,100.00
2024-03-03T21:59:29.426Z,100.00
2024-03-03T22:01:31.243Z,100.00
2024-03-03T22:03:33.680Z,100.00
2024-03-03T22:05:35.334Z,100.00
2024-03-03T22:07:38.175Z,100.00
2024-03-03T22:09:40.901Z,100.00
2024-03-03T22:11:42.713Z,100.00
2024-03-03T22:13:44.430Z,100.00
2024-03-03T22:15:46.305Z,100.00
2024-03-03T22:17:48.137Z,100.00
2024-03-03T22:19:50.032Z,100.00
2024-03-03T22:21:51.725Z,100.00
2024-03-03T22:23:54.187Z,100.00
2024-03-03T22:25:55.878Z,100.00
2024-03-03T22:27:57.609Z,100.00
2024-03-03T22:29:59.462Z,100.00
2024-03-03T22:32:01.171Z,100.00
2024-03-03T22:34:03.855Z,100.00
2024-03-03T22:36:06.212Z,100.00
2024-03-03T22:38:07.860Z,100.00
2024-03-03T22:40:11.892Z,100.00
2024-03-03T22:42:13.803Z,100.00
2024-03-03T22:44:15.946Z,100.00
2024-03-03T22:46:17.853Z,100.00
2024-03-03T22:48:19.626Z,100.00
2024-03-03T22:50:24.149Z,100.00
2024-03-03T22:52:27.069Z,100.00
2024-03-03T22:54:28.788Z,100.00
2024-03-03T22:56:30.682Z,100.00
2024-03-03T22:58:32.434Z,100.00
2024-03-03T23:00:39.611Z,100.00
2024-03-03T23:02:41.854Z,100.00
2024-03-03T23:04:47.450Z,100.00
2024-03-03T23:06:50.585Z,100.00
2024-03-03T23:08:52.395Z,100.00
2024-03-03T23:10:54.085Z,100.00
2024-03-03T23:12:55.767Z,100.00
2024-03-03T23:14:57.527Z,100.00
2024-03-03T23:16:59.287Z,100.00
2024-03-03T23:19:00.986Z,100.00
2024-03-03T23:21:02.656Z,100.00
2024-03-03T23:23:04.510Z,100.00
2024-03-03T23:25:06.467Z,100.00
2024-03-03T23:27:08.195Z,100.00
2024-03-03T23:29:11.791Z,100.00
2024-03-03T23:31:13.941Z,100.00
2024-03-03T23:33:15.790Z,100.00
2024-03-03T23:35:18.520Z,100.00
2024-03-03T23:37:20.377Z,100.00
2024-03-03T23:39:22.298Z,100.00
2024-03-03T23:41:24.071Z,100.00
2024-03-03T23:43:26.008Z,100.00
2024-03-03T23:45:28.533Z,100.00
2024-03-03T23:47:31.154Z,100.00
2024-03-03T23:49:32.903Z,100.00
2024-03-03T23:51:34.703Z,100.00
2024-03-03T23:53:36.369Z,100.00
2024-03-03T23:55:38.585Z,100.00
2024-03-03T23:57:40.325Z,100.00
2024-03-03T23:59:41.942Z,100.00
